Time;durP1;ratioP1;P1;durP2;ratioP2;P2;SDS_P1;SDS_P2;PMS_P1;PMS_P2;Temp;Humidity;BMP_temperature;BMP_pressure;BME280_temperature;BME280_humidity;BME280_pressure;Samples;Min_cycle;Max_cycle;Signal;HPM_P1;HPM_P2
2022/03/03 00:01:38;;;;;;;25.80;15.43;;;6.10;51.60;;;;;;5035241;28;20028;-22
2022/03/03 00:04:05;;;;;;;19.75;11.40;;;6.10;51.90;;;;;;5033846;28;20022;-23
2022/03/03 00:06:33;;;;;;;21.27;12.40;;;6.00;51.40;;;;;;5034940;28;20056;-22
2022/03/03 00:08:59;;;;;;;17.02;9.73;;;6.00;51.30;;;;;;5035146;28;20033;-24
2022/03/03 00:11:25;;;;;;;17.75;10.82;;;5.90;51.50;;;;;;5035485;28;20428;-24
2022/03/03 00:13:51;;;;;;;15.45;8.80;;;5.90;51.40;;;;;;5033857;28;20025;-22
2022/03/03 00:16:17;;;;;;;21.90;11.18;;;5.90;51.40;;;;;;5034519;28;20036;-24
2022/03/03 00:18:43;;;;;;;21.02;12.25;;;5.90;52.30;;;;;;5034522;28;20041;-23
2022/03/03 00:21:10;;;;;;;19.20;10.05;;;5.80;52.80;;;;;;5035293;28;20485;-22
2022/03/03 00:23:36;;;;;;;17.30;11.88;;;5.80;52.00;;;;;;5034617;28;20497;-24
2022/03/03 00:26:02;;;;;;;18.40;11.93;;;5.70;51.70;;;;;;5035413;28;20053;-22
2022/03/03 00:28:28;;;;;;;18.10;10.20;;;5.70;51.80;;;;;;5034370;28;20079;-24
2022/03/03 00:30:54;;;;;;;16.52;9.00;;;5.70;51.90;;;;;;5034539;28;20108;-23
2022/03/03 00:33:21;;;;;;;17.30;9.63;;;5.70;51.80;;;;;;5033292;28;20034;-23
2022/03/03 00:35:47;;;;;;;17.45;9.40;;;5.70;51.60;;;;;;5034704;28;20029;-22
2022/03/03 00:38:13;;;;;;;22.63;11.23;;;5.60;51.90;;;;;;5034436;28;20125;-23
2022/03/03 00:40:39;;;;;;;20.90;11.52;;;5.60;52.70;;;;;;5034835;28;20029;-22
2022/03/03 00:43:06;;;;;;;15.32;8.90;;;5.60;52.60;;;;;;5034612;28;20026;-22
2022/03/03 00:45:36;;;;;;;17.55;8.43;;;5.60;52.30;;;;;;5034592;28;20420;-23
2022/03/03 00:48:04;;;;;;;15.43;8.40;;;5.60;51.80;;;;;;5034541;28;20021;-22
2022/03/03 00:50:30;;;;;;;14.43;8.40;;;5.50;51.70;;;;;;5034156;28;20025;-24
2022/03/03 00:52:56;;;;;;;21.23;11.68;;;5.50;51.80;;;;;;5035005;28;20466;-23
2022/03/03 00:55:23;;;;;;;16.27;9.10;;;5.50;52.60;;;;;;5034358;28;20025;-22
2022/03/03 00:57:49;;;;;;;14.65;8.10;;;5.50;52.40;;;;;;5033926;28;20029;-22
2022/03/03 01:00:16;;;;;;;13.23;7.55;;;5.50;52.00;;;;;;5033905;28;20101;-22
2022/03/03 01:02:41;;;;;;;18.73;10.57;;;5.50;51.90;;;;;;5034190;28;20067;-22
2022/03/03 01:05:08;;;;;;;14.50;9.00;;;5.40;52.40;;;;;;5034222;28;20053;-22
2022/03/03 01:07:34;;;;;;;13.75;7.95;;;5.40;52.20;;;;;;5033744;28;20018;-22
2022/03/03 01:10:00;;;;;;;14.85;8.82;;;5.40;52.10;;;;;;5034098;28;20025;-22
2022/03/03 01:12:27;;;;;;;15.38;8.85;;;5.40;52.10;;;;;;5033534;28;20457;-24
2022/03/03 01:14:52;;;;;;;15.38;8.82;;;5.40;52.00;;;;;;5034031;28;20033;-22
2022/03/03 01:17:18;;;;;;;12.57;7.50;;;5.30;52.00;;;;;;5032171;28;20056;-23
2022/03/03 01:19:44;;;;;;;19.42;11.25;;;5.30;52.10;;;;;;5034055;28;20068;-22
2022/03/03 01:22:10;;;;;;;24.92;15.60;;;5.30;52.30;;;;;;5033583;28;20029;-22
2022/03/03 01:24:36;;;;;;;25.33;15.00;;;5.30;52.90;;;;;;5033150;28;20036;-22
2022/03/03 01:27:02;;;;;;;40.88;25.02;;;5.20;54.00;;;;;;5033863;28;20022;-22
2022/03/03 01:29:28;;;;;;;22.95;11.75;;;5.20;54.00;;;;;;5033697;28;20109;-22
2022/03/03 01:31:54;;;;;;;17.67;9.25;;;5.10;55.20;;;;;;5033635;28;20485;-21
2022/03/03 01:34:20;;;;;;;16.45;8.70;;;5.10;53.60;;;;;;5033348;28;20079;-24
2022/03/03 01:36:46;;;;;;;35.00;19.95;;;5.10;53.40;;;;;;5033693;28;20507;-21
2022/03/03 01:39:11;;;;;;;17.38;9.43;;;5.00;53.70;;;;;;5033737;28;20396;-21
2022/03/03 01:41:40;;;;;;;15.60;9.05;;;5.00;53.70;;;;;;5033623;28;20056;-23
2022/03/03 01:44:06;;;;;;;16.42;9.18;;;5.00;53.30;;;;;;5033277;28;20477;-22
2022/03/03 01:46:32;;;;;;;16.33;9.07;;;4.90;53.40;;;;;;5033688;28;20029;-21
2022/03/03 01:48:58;;;;;;;19.15;10.73;;;4.90;53.40;;;;;;5033431;28;20029;-23
2022/03/03 01:51:24;;;;;;;17.02;9.70;;;4.90;53.40;;;;;;5033372;28;20477;-22
2022/03/03 01:53:50;;;;;;;14.77;8.32;;;4.90;54.70;;;;;;5033264;28;20026;-24
2022/03/03 01:56:17;;;;;;;16.88;10.38;;;4.80;53.80;;;;;;5033262;28;20069;-23
2022/03/03 01:58:44;;;;;;;15.02;8.10;;;4.80;53.70;;;;;;5033041;28;20033;-24
2022/03/03 02:01:12;;;;;;;14.23;8.13;;;4.80;53.40;;;;;;5033105;28;20028;-22
2022/03/03 02:03:38;;;;;;;15.77;9.27;;;4.80;53.30;;;;;;5033337;28;20456;-22
2022/03/03 02:06:04;;;;;;;13.95;8.82;;;4.70;53.90;;;;;;5032988;28;20553;-23
2022/03/03 02:08:30;;;;;;;14.13;7.75;;;4.70;53.40;;;;;;5033455;28;20032;-22
2022/03/03 02:10:56;;;;;;;16.38;9.23;;;4.60;53.40;;;;;;5033818;28;20022;-22
2022/03/03 02:13:22;;;;;;;13.52;7.82;;;4.60;53.70;;;;;;5031766;28;20060;-20
2022/03/03 02:15:54;;;;;;;13.63;7.50;;;4.60;53.40;;;;;;5033097;28;20071;-22
2022/03/03 02:18:21;;;;;;;15.88;8.82;;;4.60;53.30;;;;;;5032444;28;20509;-23
2022/03/03 02:20:49;;;;;;;12.32;7.38;;;4.50;53.80;;;;;;5032819;28;20041;-22
2022/03/03 02:23:15;;;;;;;15.57;7.80;;;4.50;53.60;;;;;;5033137;28;20485;-22
2022/03/03 02:25:41;;;;;;;13.00;7.90;;;4.50;53.30;;;;;;5033147;28;20028;-24
2022/03/03 02:28:07;;;;;;;13.82;7.85;;;4.40;53.60;;;;;;5032852;28;20026;-22
2022/03/03 02:30:33;;;;;;;25.02;15.70;;;4.40;53.70;;;;;;5032931;28;20048;-22
2022/03/03 02:33:02;;;;;;;16.90;9.77;;;4.40;53.70;;;;;;5033103;28;20393;-24
2022/03/03 02:35:29;;;;;;;16.77;10.02;;;4.30;54.40;;;;;;5032829;28;20018;-24
2022/03/03 02:37:55;;;;;;;17.40;10.25;;;4.30;54.60;;;;;;5036222;28;20025;-22
2022/03/03 02:40:21;;;;;;;15.63;8.88;;;4.30;54.90;;;;;;5036435;28;20064;-22
2022/03/03 02:42:52;;;;;;;16.70;8.60;;;4.30;54.60;;;;;;5036564;28;20099;-22
2022/03/03 02:45:20;;;;;;;15.90;8.52;;;4.20;54.60;;;;;;5035346;28;20026;-22
2022/03/03 02:47:48;;;;;;;14.90;8.38;;;4.20;54.20;;;;;;5036461;28;20501;-22
2022/03/03 02:50:16;;;;;;;13.25;7.45;;;4.30;54.10;;;;;;5035072;28;20036;-23
2022/03/03 02:52:43;;;;;;;16.63;9.63;;;4.20;54.10;;;;;;5036271;28;20481;-21
2022/03/03 02:55:10;;;;;;;19.63;12.05;;;4.20;54.80;;;;;;5036552;28;20436;-23
2022/03/03 02:57:54;;;;;;;15.35;9.02;;;4.20;55.10;;;;;;5036603;28;20061;-22
2022/03/03 03:00:34;;;;;;;13.82;7.50;;;4.20;54.80;;;;;;5036111;28;20022;-22
2022/03/03 03:03:01;;;;;;;24.33;14.80;;;4.20;54.10;;;;;;5036473;28;20381;-22
2022/03/03 03:05:26;;;;;;;17.95;9.77;;;4.20;56.00;;;;;;5036375;28;20032;-22
2022/03/03 03:07:53;;;;;;;35.10;21.15;;;4.20;55.10;;;;;;5036316;28;20452;-22
2022/03/03 03:10:19;;;;;;;15.02;7.82;;;4.20;54.70;;;;;;5036380;28;20044;-23
2022/03/03 03:12:45;;;;;;;14.10;8.93;;;4.10;54.60;;;;;;5036031;28;20026;-22
2022/03/03 03:15:11;;;;;;;24.48;15.27;;;4.10;54.60;;;;;;5036267;28;20049;-22
2022/03/03 03:17:38;;;;;;;17.52;10.00;;;4.10;55.60;;;;;;5035643;28;20049;-22
2022/03/03 03:20:06;;;;;;;13.85;7.97;;;4.10;56.00;;;;;;5035974;28;20116;-23
2022/03/03 03:22:34;;;;;;;16.48;10.02;;;4.10;55.10;;;;;;5035577;28;20547;-23
2022/03/03 03:25:02;;;;;;;18.63;10.20;;;4.10;54.70;;;;;;5036062;28;20619;-22
2022/03/03 03:27:28;;;;;;;21.17;12.25;;;4.10;54.50;;;;;;5036075;28;20018;-22
2022/03/03 03:29:53;;;;;;;18.95;10.20;;;4.10;54.10;;;;;;5035731;28;20060;-23
2022/03/03 03:32:19;;;;;;;19.35;10.90;;;4.10;54.80;;;;;;5035611;28;20029;-22
2022/03/03 03:34:45;;;;;;;14.48;8.27;;;4.10;55.40;;;;;;5035806;28;20030;-22
2022/03/03 03:37:11;;;;;;;15.23;8.25;;;4.00;54.90;;;;;;5035437;28;20394;-24
2022/03/03 03:39:37;;;;;;;16.60;8.30;;;4.10;55.30;;;;;;5035852;28;20075;-22
2022/03/03 03:42:04;;;;;;;13.55;7.05;;;4.10;55.60;;;;;;5035783;28;20108;-22
2022/03/03 03:44:30;;;;;;;13.32;7.50;;;4.00;55.20;;;;;;5035236;28;20029;-22
2022/03/03 03:46:56;;;;;;;15.82;9.10;;;4.00;54.80;;;;;;5035309;28;20026;-23
2022/03/03 03:49:23;;;;;;;12.80;7.50;;;4.00;54.70;;;;;;5035530;28;20075;-22
2022/03/03 03:51:50;;;;;;;13.23;8.00;;;4.00;54.70;;;;;;5035521;28;20029;-23
2022/03/03 03:54:16;;;;;;;18.27;11.15;;;4.00;54.70;;;;;;5035033;28;20022;-22
2022/03/03 03:56:42;;;;;;;20.98;12.35;;;3.90;55.10;;;;;;5035842;28;20029;-22
2022/03/03 03:59:08;;;;;;;15.05;8.90;;;3.90;55.90;;;;;;5035145;28;20041;-23
2022/03/03 04:01:34;;;;;;;16.60;9.50;;;3.90;55.40;;;;;;5035112;28;20120;-22
2022/03/03 04:04:00;;;;;;;14.50;7.95;;;3.90;55.30;;;;;;5035390;28;20124;-21
2022/03/03 04:06:26;;;;;;;16.77;9.55;;;3.90;55.00;;;;;;5034760;28;20040;-22
2022/03/03 04:08:52;;;;;;;30.95;15.88;;;3.90;55.00;;;;;;5034966;28;20055;-22
2022/03/03 04:11:18;;;;;;;19.60;10.20;;;3.80;55.00;;;;;;5034951;28;20026;-22
2022/03/03 04:13:43;;;;;;;12.05;7.05;;;3.80;55.60;;;;;;5035145;28;20025;-23
2022/03/03 04:16:09;;;;;;;14.95;8.20;;;3.80;55.30;;;;;;5034797;28;20067;-23
2022/03/03 04:18:36;;;;;;;14.65;7.28;;;3.70;55.90;;;;;;5034414;28;20050;-22
2022/03/03 04:21:02;;;;;;;13.73;8.15;;;3.70;55.50;;;;;;5034884;28;20029;-22
2022/03/03 04:23:27;;;;;;;24.00;14.18;;;3.70;55.20;;;;;;5035071;28;20425;-23
2022/03/03 04:25:54;;;;;;;14.27;8.50;;;3.60;55.40;;;;;;5034666;28;20052;-21
2022/03/03 04:28:19;;;;;;;32.58;20.20;;;3.60;55.60;;;;;;5034709;28;20026;-22
2022/03/03 04:30:45;;;;;;;14.73;8.25;;;3.60;55.90;;;;;;5034633;28;20037;-23
2022/03/03 04:33:11;;;;;;;18.30;10.00;;;3.60;55.90;;;;;;5034753;28;20104;-22
2022/03/03 04:35:37;;;;;;;16.30;8.65;;;3.50;57.00;;;;;;5034712;28;20026;-22
2022/03/03 04:38:03;;;;;;;16.00;8.93;;;3.50;56.00;;;;;;5034261;28;20033;-22
2022/03/03 04:40:29;;;;;;;17.50;10.02;;;3.50;56.30;;;;;;5034447;28;20053;-23
2022/03/03 04:42:54;;;;;;;14.48;7.18;;;3.40;57.00;;;;;;5034597;28;20385;-22
2022/03/03 04:45:20;;;;;;;13.35;8.05;;;3.40;56.10;;;;;;5035011;28;20469;-22
2022/03/03 04:47:46;;;;;;;17.83;10.07;;;3.40;55.80;;;;;;5034420;28;20110;-22
2022/03/03 04:50:13;;;;;;;17.67;9.15;;;3.40;55.90;;;;;;5034043;28;20053;-25
2022/03/03 04:52:39;;;;;;;16.52;9.30;;;3.40;55.50;;;;;;5034022;28;20559;-21
2022/03/03 04:55:05;;;;;;;18.77;10.15;;;3.30;56.10;;;;;;5034433;28;20025;-22
2022/03/03 04:57:32;;;;;;;16.60;9.02;;;3.30;56.40;;;;;;5034422;28;20033;-24
2022/03/03 04:59:58;;;;;;;15.35;8.45;;;3.30;56.80;;;;;;5033502;28;20030;-22
2022/03/03 05:02:24;;;;;;;21.77;12.98;;;3.30;56.70;;;;;;5033755;28;20037;-23
2022/03/03 05:04:50;;;;;;;18.27;9.75;;;3.30;57.20;;;;;;5033933;28;20025;-23
2022/03/03 05:07:16;;;;;;;19.42;10.00;;;3.30;56.30;;;;;;5033780;28;20079;-22
2022/03/03 05:09:42;;;;;;;37.88;21.13;;;3.20;56.60;;;;;;5034127;28;20030;-22
2022/03/03 05:12:08;;;;;;;36.38;21.27;;;3.20;57.50;;;;;;5033816;28;20025;-24
2022/03/03 05:14:34;;;;;;;44.25;24.55;;;3.20;58.50;;;;;;5032293;28;20030;-23
2022/03/03 05:17:00;;;;;;;31.70;18.05;;;3.20;58.80;;;;;;5033652;28;20505;-22
2022/03/03 05:19:26;;;;;;;32.20;15.63;;;3.10;59.90;;;;;;5034301;28;20026;-22
2022/03/03 05:21:52;;;;;;;23.27;13.18;;;3.10;59.60;;;;;;5033590;28;20228;-22
2022/03/03 05:24:18;;;;;;;24.13;13.45;;;3.10;59.50;;;;;;5033446;28;20120;-21
2022/03/03 05:26:44;;;;;;;19.40;10.52;;;3.10;58.20;;;;;;5033888;28;20031;-24
2022/03/03 05:29:10;;;;;;;20.38;10.05;;;3.10;57.60;;;;;;5033507;28;20526;-24
2022/03/03 05:31:36;;;;;;;16.85;8.68;;;3.20;57.40;;;;;;5033546;28;20033;-24
2022/03/03 05:34:03;;;;;;;14.20;8.45;;;3.20;57.30;;;;;;5033761;28;20424;-21
2022/03/03 05:36:30;;;;;;;24.75;14.15;;;3.30;57.30;;;;;;5033455;28;20040;-24
2022/03/03 05:38:57;;;;;;;27.60;14.52;;;3.30;58.60;;;;;;5033566;28;20037;-23
2022/03/03 05:41:24;;;;;;;29.13;17.05;;;3.30;57.70;;;;;;5033685;28;20033;-23
2022/03/03 05:43:51;;;;;;;46.88;24.35;;;3.30;57.70;;;;;;5033247;28;20564;-22
2022/03/03 05:46:18;;;;;;;27.13;16.73;;;3.30;58.80;;;;;;5033128;28;20045;-23
2022/03/03 05:48:45;;;;;;;17.42;9.85;;;3.30;58.80;;;;;;5033281;28;20475;-21
2022/03/03 05:51:11;;;;;;;18.52;10.75;;;3.30;57.80;;;;;;5033395;28;20033;-22
2022/03/03 05:53:37;;;;;;;17.88;10.35;;;3.30;57.30;;;;;;5033853;28;20051;-21
2022/03/03 05:56:09;;;;;;;17.92;10.30;;;3.30;56.60;;;;;;5033122;28;20485;-22
2022/03/03 05:58:45;;;;;;;19.27;11.02;;;3.30;56.60;;;;;;5032890;28;20069;-22
2022/03/03 06:01:13;;;;;;;15.60;8.73;;;3.30;56.80;;;;;;5033421;28;20076;-24
2022/03/03 06:03:39;;;;;;;19.50;10.55;;;3.30;57.00;;;;;;5033078;28;20037;-24
2022/03/03 06:06:18;;;;;;;16.23;8.02;;;3.30;57.20;;;;;;5032970;28;20025;-22
2022/03/03 06:09:01;;;;;;;15.38;8.38;;;3.30;56.80;;;;;;5033557;28;20021;-22
2022/03/03 06:11:29;;;;;;;15.07;7.60;;;3.20;56.80;;;;;;5034767;28;20018;-22
2022/03/03 06:14:06;;;;;;;13.25;6.93;;;3.20;56.90;;;;;;5037450;28;20108;-22
2022/03/03 06:16:33;;;;;;;12.90;6.28;;;3.20;56.20;;;;;;5036687;28;20033;-22
2022/03/03 06:18:59;;;;;;;15.18;8.90;;;3.20;56.70;;;;;;5037023;28;20034;-23
2022/03/03 06:21:26;;;;;;;14.15;7.68;;;3.20;56.70;;;;;;5036916;28;20108;-22
2022/03/03 06:23:52;;;;;;;10.88;6.32;;;3.20;56.60;;;;;;5036853;28;20485;-22
2022/03/03 06:26:19;;;;;;;21.25;12.88;;;3.20;56.40;;;;;;5036699;28;20048;-22
2022/03/03 06:28:46;;;;;;;35.42;19.52;;;3.20;56.40;;;;;;5036886;28;20038;-22
2022/03/03 06:31:13;;;;;;;19.17;10.63;;;3.20;56.60;;;;;;5036867;28;20481;-23
2022/03/03 06:33:40;;;;;;;28.13;15.10;;;3.20;57.50;;;;;;5037077;28;20030;-23
2022/03/03 06:36:07;;;;;;;20.38;10.30;;;3.30;56.70;;;;;;5036963;28;20030;-23
2022/03/03 06:38:34;;;;;;;24.85;12.85;;;3.30;57.20;;;;;;5036479;28;20022;-22
2022/03/03 06:41:02;;;;;;;15.40;9.10;;;3.30;57.50;;;;;;5037261;28;20115;-22
2022/03/03 06:43:29;;;;;;;13.63;7.25;;;3.40;56.80;;;;;;5036878;28;20026;-22
2022/03/03 06:45:58;;;;;;;16.98;8.82;;;3.40;56.60;;;;;;5036675;28;20057;-22
2022/03/03 06:48:24;;;;;;;15.13;8.40;;;3.50;57.10;;;;;;5036392;28;20361;-21
2022/03/03 06:50:55;;;;;;;15.73;7.85;;;3.60;56.60;;;;;;5036459;28;20145;-22
2022/03/03 06:53:30;;;;;;;13.50;7.45;;;3.70;56.20;;;;;;5035190;28;20485;-23
2022/03/03 06:56:08;;;;;;;13.60;6.75;;;3.80;56.30;;;;;;5036679;28;20021;-24
2022/03/03 06:58:35;;;;;;;12.27;6.40;;;3.90;56.40;;;;;;5036456;28;20473;-24
2022/03/03 07:01:07;;;;;;;14.27;7.38;;;3.90;56.60;;;;;;5036271;28;20393;-22
2022/03/03 07:03:34;;;;;;;17.33;10.18;;;4.10;56.20;;;;;;5036591;28;20026;-22
2022/03/03 07:06:01;;;;;;;22.90;12.40;;;4.20;56.30;;;;;;5036592;28;20033;-24
2022/03/03 07:08:27;;;;;;;25.40;13.88;;;4.30;56.00;;;;;;5035987;28;20100;-24
2022/03/03 07:10:54;;;;;;;31.20;17.23;;;4.40;55.90;;;;;;5036115;28;20121;-22
2022/03/03 07:13:20;;;;;;;28.23;15.93;;;4.60;56.20;;;;;;5036395;28;20048;-24
2022/03/03 07:15:54;;;;;;;22.77;13.43;;;4.70;56.60;;;;;;5036312;28;20384;-22
2022/03/03 07:18:33;;;;;;;;;;;4.90;56.50;;;;;;5036061;28;20038;-22
2022/03/03 07:21:06;;;;;;;41.88;22.15;;;5.00;57.90;;;;;;5036326;28;20377;-22
2022/03/03 07:23:51;;;;;;;38.10;20.60;;;5.10;56.80;;;;;;5035704;28;20049;-22
2022/03/03 07:26:18;;;;;;;24.10;14.38;;;5.20;57.50;;;;;;5035957;28;20045;-22
2022/03/03 07:28:53;;;;;;;20.73;12.75;;;5.40;56.80;;;;;;5035738;28;20025;-24
2022/03/03 07:31:26;;;;;;;26.90;15.38;;;5.40;57.10;;;;;;5036147;28;20112;-22
2022/03/03 07:33:59;;;;;;;27.95;17.00;;;5.60;56.60;;;;;;5035876;28;20540;-22
2022/03/03 07:36:28;;;;;;;22.10;13.10;;;5.70;57.30;;;;;;5035700;28;20132;-23
2022/03/03 07:38:59;;;;;;;35.42;20.52;;;5.80;57.50;;;;;;5035426;28;20083;-23
2022/03/03 07:41:27;;;;;;;33.90;20.42;;;5.90;57.30;;;;;;5035617;28;20029;-23
2022/03/03 07:43:55;;;;;;;31.67;16.23;;;6.00;57.30;;;;;;5035427;28;20371;-22
2022/03/03 07:46:23;;;;;;;28.70;16.33;;;6.20;56.90;;;;;;5035285;28;20053;-22
2022/03/03 07:48:51;;;;;;;31.50;18.40;;;6.20;56.60;;;;;;5035351;28;20025;-23
2022/03/03 07:51:18;;;;;;;36.15;21.42;;;6.40;56.50;;;;;;5035564;28;20116;-22
2022/03/03 07:53:44;;;;;;;36.17;22.30;;;6.50;56.60;;;;;;5035513;28;20362;-24
2022/03/03 07:56:15;;;;;;;30.83;16.30;;;6.60;56.60;;;;;;5035251;28;20032;-22
2022/03/03 07:58:46;;;;;;;27.13;15.93;;;6.80;56.80;;;;;;5035201;28;20468;-22
2022/03/03 08:01:17;;;;;;;38.00;21.65;;;6.90;56.30;;;;;;5035228;28;20067;-22
2022/03/03 08:03:46;;;;;;;37.53;20.48;;;7.00;56.20;;;;;;5035480;28;20061;-22
2022/03/03 08:06:15;;;;;;;34.55;21.77;;;7.10;55.90;;;;;;5035054;28;20029;-21
2022/03/03 08:08:42;;;;;;;39.35;22.27;;;7.30;56.00;;;;;;5036003;28;20017;-22
2022/03/03 08:11:09;;;;;;;38.85;21.80;;;7.40;56.00;;;;;;5035232;28;20029;-22
2022/03/03 08:13:36;;;;;;;30.00;18.17;;;7.50;55.40;;;;;;5034992;28;20092;-22
2022/03/03 08:16:03;;;;;;;33.15;20.35;;;7.70;55.20;;;;;;5035208;28;20029;-22
2022/03/03 08:18:32;;;;;;;31.00;18.13;;;7.90;54.90;;;;;;5034373;28;20445;-21
2022/03/03 08:21:03;;;;;;;31.75;18.25;;;8.00;54.50;;;;;;5034804;28;20057;-22
2022/03/03 08:23:30;;;;;;;32.63;18.27;;;8.20;54.10;;;;;;5034984;28;20029;-22
2022/03/03 08:25:58;;;;;;;28.45;16.98;;;8.40;54.30;;;;;;5034690;28;20029;-22
2022/03/03 08:28:25;;;;;;;28.95;18.17;;;8.60;53.70;;;;;;5034746;28;20029;-22
2022/03/03 08:30:58;;;;;;;27.95;15.82;;;8.90;53.60;;;;;;5034800;28;20429;-22
2022/03/03 08:33:47;;;;;;;27.15;16.65;;;9.00;53.10;;;;;;5034073;28;20033;-22
2022/03/03 08:36:28;;;;;;;34.05;20.35;;;9.30;52.80;;;;;;5034162;28;20116;-23
2022/03/03 08:39:03;;;;;;;30.35;18.05;;;9.50;52.10;;;;;;5035074;28;20370;-23
2022/03/03 08:41:36;;;;;;;29.38;16.88;;;9.70;51.80;;;;;;5034464;28;20049;-22
2022/03/03 08:44:04;;;;;;;25.02;14.73;;;9.90;51.30;;;;;;5035235;28;20036;-24
2022/03/03 08:46:32;;;;;;;25.38;15.57;;;10.10;51.00;;;;;;5034018;28;20025;-22
2022/03/03 08:49:01;;;;;;;38.85;21.95;;;10.30;50.50;;;;;;5034597;28;20021;-22
2022/03/03 08:51:28;;;;;;;35.25;19.60;;;10.60;50.50;;;;;;5034101;28;20034;-22
2022/03/03 08:53:55;;;;;;;23.20;13.95;;;10.80;50.10;;;;;;5034479;28;20080;-24
2022/03/03 08:56:22;;;;;;;28.00;15.70;;;11.00;49.80;;;;;;5033947;28;20057;-24
2022/03/03 08:58:50;;;;;;;18.73;10.65;;;11.20;49.50;;;;;;5033958;28;20473;-23
2022/03/03 09:01:16;;;;;;;24.77;14.10;;;11.40;49.20;;;;;;5034031;28;20025;-21
2022/03/03 09:03:43;;;;;;;19.48;10.85;;;11.70;48.90;;;;;;5034288;28;20079;-23
2022/03/03 09:06:17;;;;;;;18.08;10.52;;;11.90;48.50;;;;;;5034193;28;20524;-21
2022/03/03 09:08:43;;;;;;;37.50;22.80;;;12.20;48.20;;;;;;5033866;28;20492;-21
2022/03/03 09:11:09;;;;;;;18.88;10.65;;;12.40;47.70;;;;;;5034124;28;20423;-21
2022/03/03 09:13:36;;;;;;;28.75;16.90;;;12.70;47.50;;;;;;5033792;28;20022;-23
2022/03/03 09:16:02;;;;;;;27.65;16.27;;;12.90;47.00;;;;;;5033947;28;20033;-22
2022/03/03 09:18:28;;;;;;;27.23;16.23;;;13.20;46.80;;;;;;5033274;28;20432;-22
2022/03/03 09:20:55;;;;;;;21.00;11.98;;;13.40;46.40;;;;;;5033711;28;20021;-21
2022/03/03 09:23:21;;;;;;;23.05;14.10;;;13.60;46.10;;;;;;5033866;28;20025;-23
2022/03/03 09:25:47;;;;;;;27.85;14.85;;;13.90;45.80;;;;;;5033650;28;20048;-23
2022/03/03 09:28:13;;;;;;;18.83;10.07;;;14.10;45.70;;;;;;5033627;28;20358;-22
2022/03/03 09:30:39;;;;;;;36.65;20.35;;;14.40;45.50;;;;;;5034322;28;20036;-21
2022/03/03 09:33:05;;;;;;;31.38;16.63;;;14.60;45.10;;;;;;5033576;28;20029;-21
2022/03/03 09:35:32;;;;;;;21.73;12.75;;;14.90;44.60;;;;;;5033448;28;20025;-21
2022/03/03 09:37:58;;;;;;;26.35;15.77;;;15.10;44.50;;;;;;5033245;28;20103;-23
2022/03/03 09:40:25;;;;;;;22.23;13.18;;;15.40;44.00;;;;;;5031963;28;20103;-24
2022/03/03 09:43:02;;;;;;;28.83;17.35;;;15.60;43.60;;;;;;5033646;28;20025;-23
2022/03/03 09:45:29;;;;;;;23.73;13.95;;;15.90;43.40;;;;;;5033121;28;20443;-23
2022/03/03 09:47:57;;;;;;;26.30;16.00;;;16.10;43.10;;;;;;5033292;28;20053;-23
2022/03/03 09:50:25;;;;;;;30.95;17.02;;;16.40;42.60;;;;;;5033546;28;20480;-21
2022/03/03 09:52:52;;;;;;;31.00;18.45;;;16.50;42.10;;;;;;5033436;28;20043;-22
2022/03/03 09:55:19;;;;;;;32.85;19.10;;;16.70;42.10;;;;;;5033470;28;20029;-21
2022/03/03 09:57:45;;;;;;;28.05;16.80;;;16.90;41.90;;;;;;5033335;28;20109;-21
2022/03/03 10:00:12;;;;;;;26.00;14.75;;;17.00;41.60;;;;;;5033210;28;20508;-21
2022/03/03 10:02:59;;;;;;;31.52;17.55;;;17.20;41.70;;;;;;5031909;28;20026;-22
2022/03/03 10:05:33;;;;;;;43.67;23.90;;;17.40;39.80;;;;;;5033128;28;20029;-21
2022/03/03 10:08:01;;;;;;;40.10;23.00;;;17.50;39.30;;;;;;5033048;28;20036;-22
2022/03/03 10:10:27;;;;;;;39.13;21.63;;;17.60;39.90;;;;;;5032959;28;20025;-22
2022/03/03 10:12:57;;;;;;;35.42;20.00;;;17.70;40.00;;;;;;5033329;28;20507;-22
2022/03/03 10:15:30;;;;;;;26.45;16.25;;;17.90;40.20;;;;;;5032949;28;20452;-21
2022/03/03 10:18:03;;;;;;;27.40;16.63;;;18.00;40.30;;;;;;5032974;28;20033;-21
2022/03/03 10:20:34;;;;;;;38.47;24.02;;;18.20;40.40;;;;;;5033147;28;20052;-21
2022/03/03 10:23:00;;;;;;;35.58;21.13;;;18.40;39.80;;;;;;5032868;28;20481;-22
2022/03/03 10:25:32;;;;;;;36.30;22.20;;;18.40;39.60;;;;;;5033195;28;20037;-22
2022/03/03 10:28:18;;;;;;;47.50;28.73;;;18.70;39.20;;;;;;5032877;28;20036;-22
2022/03/03 10:31:00;;;;;;;46.03;27.23;;;18.70;36.10;;;;;;5033157;28;20049;-21
2022/03/03 10:33:29;;;;;;;44.05;27.42;;;18.80;37.40;;;;;;5033199;28;20377;-20
2022/03/03 10:36:08;;;;;;;40.13;26.38;;;18.70;38.00;;;;;;5032804;28;20397;-21
2022/03/03 10:38:56;;;;;;;35.10;22.52;;;18.80;38.50;;;;;;5032433;28;20062;-22
2022/03/03 10:41:42;;;;;;;32.38;20.10;;;18.90;38.50;;;;;;5033000;28;20058;-21
2022/03/03 10:44:12;;;;;;;31.05;19.80;;;19.10;38.10;;;;;;5032778;28;20120;-22
2022/03/03 10:47:07;;;;;;;37.30;23.63;;;19.30;38.80;;;;;;5033354;28;20040;-21
2022/03/03 10:49:34;;;;;;;43.25;26.17;;;19.50;36.60;;;;;;5033006;28;20034;-21
2022/03/03 10:52:11;;;;;;;30.90;20.08;;;19.70;37.40;;;;;;5032555;28;20033;-21
2022/03/03 10:54:55;;;;;;;32.38;21.10;;;19.90;37.50;;;;;;5033308;28;20053;-21
2022/03/03 10:57:38;;;;;;;29.48;19.90;;;20.10;34.60;;;;;;5033599;28;20053;-21
2022/03/03 11:00:19;;;;;;;34.25;21.63;;;20.30;36.70;;;;;;5036377;28;20397;-21
2022/03/03 11:02:51;;;;;;;33.25;22.52;;;20.50;37.10;;;;;;5036621;28;20477;-22
2022/03/03 11:05:20;;;;;;;24.67;16.60;;;20.70;36.60;;;;;;5036233;28;20592;-21
2022/03/03 11:07:47;;;;;;;41.33;26.33;;;20.90;37.10;;;;;;5036421;28;20044;-21
2022/03/03 11:10:17;;;;;;;34.15;22.77;;;21.20;36.50;;;;;;5036546;28;20018;-22
2022/03/03 11:12:44;;;;;;;31.85;21.02;;;21.30;36.10;;;;;;5036383;28;20062;-22
2022/03/03 11:15:12;;;;;;;24.08;16.23;;;21.50;35.90;;;;;;5036349;28;20026;-21
2022/03/03 11:17:39;;;;;;;38.33;25.83;;;21.70;36.40;;;;;;5035680;28;20045;-21
2022/03/03 11:20:07;;;;;;;35.97;23.30;;;21.90;35.90;;;;;;5036224;28;20090;-21
2022/03/03 11:22:33;;;;;;;31.05;21.58;;;22.00;35.60;;;;;;5035629;28;20025;-21
2022/03/03 11:25:04;;;;;;;41.70;27.27;;;22.20;35.10;;;;;;5035892;28;20026;-22
2022/03/03 11:27:38;;;;;;;42.78;28.25;;;22.20;34.10;;;;;;5035821;28;20415;-21
2022/03/03 11:30:30;;;;;;;31.92;22.55;;;22.10;32.40;;;;;;5035726;28;20083;-22
2022/03/03 11:33:24;;;;;;;33.47;23.02;;;22.00;30.30;;;;;;5036083;28;20034;-22
2022/03/03 11:36:02;;;;;;;32.58;22.80;;;22.10;30.80;;;;;;5035727;28;20037;-21
2022/03/03 11:38:47;;;;;;;27.42;18.40;;;22.10;33.10;;;;;;5035655;28;20029;-21
2022/03/03 11:41:13;;;;;;;35.78;25.35;;;22.40;32.60;;;;;;5035646;28;20038;-21
2022/03/03 11:43:57;;;;;;;40.22;26.10;;;22.50;32.80;;;;;;5035544;28;20037;-21
2022/03/03 11:46:46;;;;;;;35.85;24.88;;;22.50;31.70;;;;;;5035195;28;20385;-20
2022/03/03 11:49:17;;;;;;;32.47;22.23;;;22.60;31.80;;;;;;5035409;28;20070;-21
2022/03/03 11:51:43;;;;;;;36.53;24.45;;;22.80;31.80;;;;;;5035451;28;20104;-21
2022/03/03 11:54:11;;;;;;;35.47;23.80;;;22.90;32.00;;;;;;5035330;28;20109;-21
2022/03/03 11:57:03;;;;;;;30.60;20.95;;;23.00;32.00;;;;;;5035333;28;20139;-21
2022/03/03 11:59:40;;;;;;;31.52;22.55;;;23.20;30.70;;;;;;5032675;28;20036;-21
2022/03/03 12:02:07;;;;;;;21.20;15.02;;;23.40;31.50;;;;;;5035407;28;20466;-21
2022/03/03 12:04:34;;;;;;;37.65;27.35;;;23.60;32.10;;;;;;5035242;28;20025;-21
2022/03/03 12:07:01;;;;;;;30.52;21.15;;;23.90;31.10;;;;;;5034939;28;20132;-21
2022/03/03 12:09:34;;;;;;;35.17;25.05;;;23.90;31.20;;;;;;5035366;28;20029;-21
2022/03/03 12:12:19;;;;;;;35.42;23.95;;;24.10;31.00;;;;;;5035077;28;20056;-22
2022/03/03 12:14:53;;;;;;;19.73;14.40;;;24.20;29.70;;;;;;5034850;28;20116;-21
2022/03/03 12:17:39;;;;;;;21.40;15.68;;;24.30;31.10;;;;;;5035008;28;20077;-21
2022/03/03 12:20:23;;;;;;;35.42;25.58;;;24.60;29.20;;;;;;5035176;28;20103;-21
2022/03/03 12:23:02;;;;;;;26.63;19.23;;;24.80;28.60;;;;;;5034729;28;20061;-21
2022/03/03 12:25:55;;;;;;;28.42;20.20;;;24.90;28.20;;;;;;5034767;28;20103;-22
2022/03/03 12:28:23;;;;;;;;;;;25.00;27.60;;;;;;5035255;28;20032;-24
2022/03/03 12:30:51;;;;;;;31.13;20.65;;;25.10;25.80;;;;;;5034640;28;19912;-21
2022/03/03 12:33:31;;;;;;;33.05;23.15;;;25.20;29.20;;;;;;5034891;28;20106;-20
2022/03/03 12:36:07;;;;;;;30.75;22.67;;;25.20;28.40;;;;;;5034612;28;20389;-21
2022/03/03 12:38:34;;;;;;;29.98;21.70;;;25.10;26.80;;;;;;5034219;28;20022;-21
2022/03/03 12:41:01;;;;;;;34.08;24.17;;;25.10;28.60;;;;;;5034437;28;20120;-21
2022/03/03 12:43:40;;;;;;;28.75;19.63;;;25.00;28.70;;;;;;5035042;28;20033;-21
2022/03/03 12:46:07;;;;;;;31.13;22.60;;;25.00;28.80;;;;;;5034663;28;20104;-21
2022/03/03 12:48:34;;;;;;;30.42;22.13;;;24.90;28.70;;;;;;5034131;28;20025;-22